Pontlliw, United Kingdom
Current Conditions -  °F | °C
As of 7:50 AM on Thursday 27 Nov 2014 (Local Time) from EGOP Reporting Station
Overcast Overcast  
Wind Chill: 33°   Ceiling: Unl
Heat Index: 39°   Visibility: 0.21mi
Dew Point: 39°   Wind: 9mph
Humidity: 100%   Direction: 70°ENE
Pressure: 29.59"   Gusts: NA
Location:  51.69°N, 4.01°W
Report Text: EGOP 270750Z AUTO 07008KT 0350 // VV/// 04/04 Q1002
Loading
Personal Weather Stations






























Interactive Weather Map New forecast layout! Learn more

10-Day Weather Forecast

Advertisements
Track Severe Weather on mobile